Don's Testing Zone


Current Conditions
weather data
source:

National Weather Service
Fog Little Rock, AR
Fog, 73°F
Sunday, August 19, 2018 6:53 AM CDT
Temperature: 73°F/23°C
Humidity: 100%
Barometer: 29.90in/1012.5mb Barometer Steady
Wind: N at 3mph/6kmh
View other cities:
Searcy | Little Rock | Hot Springs | Russellville | More...
Astronomical Conditions (Clear Sky Clock)
Searcy Clear Sky Clock
Find more weather in Little Rock, AR
    

Radar Images

NWS
    Wx Underground

KARK
   

Solar-Terrestrial Data

NWS METAR weather data

ADDS - METARS form results





Aviation Digital Data Service (ADDS) Output produced by METARs form (1210 UTC 19 August 2018) found at http://www.aviationweather.gov/adds/metars/ 

KLIT 191153Z 05004KT 0SM FG VV002 23/23 A2990 RMK AO2 SFC VIS 1/16 SLP125 70002T02330233 10239 20222 53003 RVRNO

KLIT 191053Z 00000KT 1/16SM FG VV002 23/23 A2989 RMK AO2 SLP121 T02330233 RVRNO

KLIT 191042Z 14003KT 1/4SM FG VV003 24/24 A2989 RMK AO2 T02390239 RVRNO

KLIT 191037Z 00000KT 3/4SM BR VV004 24/24 A2989 RMK AO2 T02390239 RVRNO

KLIT 190953Z 00000KT 2 1/2SM BR OVC004 23/23 A2988 RMK AO2 SLP117 BR OVC004T02330233

KLIT 190941Z 00000KT 2 1/2SM BR OVC004 23/23 A2988 RMK AO2 BR OVC004 T02280228

KLIT 190916Z 02004KT 2SM BR BKN007 BKN250 23/23 A2988 RMK AO2 BR BKN007T02280228

KLIT 190853Z 00000KT 3SM BR SCT250 23/23 A2989 RMK AO2 SLP122 T02280228 58008

KLIT 190753Z 15004KT 4SM BR SCT250 23/23 A2991 RMK AO2 SLP126 T02280228

KLIT 190653Z 00000KT 6SM BR SCT250 23/23 A2990 RMK AO2 SLP125 T02330233

KLIT 190553Z 16003KT 8SM SCT250 23/23 A2992 RMK AO2 SLP130 T02330233 10289 20228403110211 58005

KLIT 190453Z 00000KT 8SM SCT250 23/23 A2993 RMK AO2 SLP134 T02330233

KLIT 190353Z 00000KT 10SM FEW250 26/24 A2994 RMK AO2 SLP136 T02560244

KLIT 190253Z 00000KT 10SM FEW250 26/24 A2993 RMK AO2 SLP135 T02560244 52010

KLIT 190153Z 16005KT 10SM FEW250 26/24 A2992 RMK AO2 SLP131 T02560244

KLIT 190053Z 17003KT 10SM FEW035 FEW250 27/24 A2991 RMK AO2 SLP128 T02670244

KLIT 182353Z 15006KT 10SM FEW035 FEW250 29/24 A2990 RMK AO2 SLP124 T0289024410311 20278 56010

KLIT 182253Z 18006KT 10SM SCT035 SCT250 29/24 A2991 RMK AO2 SLP128 T02940239

KLIT 182153Z 17004KT 10SM SCT035 SCT250 30/24 A2991 RMK AO2 SLP129 T03000239

KLIT 182053Z 11005KT 10SM BKN033 BKN250 31/23 A2993 RMK AO2 SLP135 T0306023358019

KLIT 181953Z 12004KT 10SM BKN032 BKN250 29/23 A2996 RMK AO2 SLP143 T02940233

KLIT 181853Z 00000KT 10SM SCT022 BKN035 BKN100 29/24 A2998 RMK AO2 SLP150T02890239

KLIT 181753Z 25005KT 10SM BKN022 BKN100 28/24 A2999 RMK AO2 SLP155 60002T02780239 10278 20211 58010

KLIT 181653Z 23003KT 10SM BKN017 BKN100 27/23 A3002 RMK AO2 SLP163 T02670233

KLIT 181619Z 20003KT 10SM BKN015 BKN100 26/24 A3002 RMK AO2 T02610239

KLIT 181553Z 19006KT 10SM BKN011 BKN100 BKN250 25/23 A3002 RMK AO2 SLP165 BKN011V SCT T02500233

KLIT 181534Z 18003KT 10SM OVC010 25/23 A3002 RMK AO2 CIG 008V012 BINOVCT02500233

KLIT 181453Z 00000KT 10SM OVC008 25/23 A3002 RMK AO2 SLP166 CIG 006V010 60002T02500233 58001

KLIT 181353Z 19004KT 10SM SCT004 BKN080 BKN250 23/23 A3003 RMK AO2 SLP168 SCT004V BKN T02280228

KLIT 181253Z 00000KT 7SM FEW004 BKN080 OVC250 22/22 A3003 RMK AO2 RAB07E27SLP169 BINOVC P0002 T02170217